Darstellungsparameter: Aktuell verwendete Einstellungen:
Skalierung der Graphiken ... ?
xyx+y,   Skalierungsfaktor:      Skalierung: Modus: x, Faktor: 1
Darstellungszeitraum ... ?
Vom - - bis: - -   Zeitraum: 31.07.2019 - 02.08.2019
Min/Max/Avg-Anzeige ... ?
Zeige MMA aktuell
Zeige MMA Monat
Zeige MMA alles
Zeige --A aktuell
Zeige --A Monat
Zeige --A alles
Keine MMA-Anzeige
MMA:
Average (ber die Originaldaten)
MMA-Basis: 31.07.2019 - 02.08.2019
Quicknavigation für Darstellung... ?
Tage:      1T, 2T, 3T, 5T -1T -2T -3T -5T +1T +2T +3T +5T
Wochen: 1W, 2W, 3W -1W -2W -3W +1W +2W +3W
Monate: 1M, 3M, 6M -1M -3M -6M +1M +3M +6M
Jahre:    1J, 3J, 5J, 10J -1J -3J -5J -10J +1J +3J +5J +10J
Nutze für die Darstellung ... ?
Originaldaten oder Mittelwerte auf ...
Stundenbasis Tagesbasis Wochenbasis
Monatsbasis Jahresbasis      Datenbasis: Original-Daten
Darstellen als:
Statistik (Auto) Statistik J:M      Darstellung:
Zur Graphik,    zurück zur Übersicht aller Sensoren.
 
Tabellarische Datenbersicht: ?
 
Sensor: Nr:Datum:Temp:Abs-Feuchte:Windchill:Wind:
Aussen-T/F 1 31-07-2019 00:00:00 20.7 C 12.42 g/m*3 20.7 C 0 km/h
2 31-07-2019 00:05:00 20.7 C 12.42 g/m*3 20.7 C 0 km/h
3 31-07-2019 00:10:00 20.7 C 12.42 g/m*3 20.7 C 0 km/h
4 31-07-2019 00:15:00 20.6 C 12.35 g/m*3 20.6 C 0 km/h
5 31-07-2019 00:20:00 20.6 C 12.53 g/m*3 20.6 C 0 km/h
6 31-07-2019 00:25:00 20.6 C 12.53 g/m*3 20.6 C 0 km/h
7 31-07-2019 00:30:00 20.6 C 12.35 g/m*3 20.6 C 0 km/h
8 31-07-2019 00:35:00 20.5 C 12.46 g/m*3 20.5 C 0 km/h
9 31-07-2019 00:40:00 20.4 C 12.38 g/m*3 20.4 C 0 km/h
10 31-07-2019 00:45:00 20.4 C 12.56 g/m*3 20.4 C 0 km/h
11 31-07-2019 00:50:00 20.4 C 12.56 g/m*3 20.4 C 0 km/h
12 31-07-2019 00:55:00 20.4 C 12.56 g/m*3 20.4 C 0 km/h
13 31-07-2019 01:00:00 20.3 C 12.49 g/m*3 20.3 C 0 km/h
14 31-07-2019 01:05:00 20.3 C 12.49 g/m*3 20.3 C 0 km/h
15 31-07-2019 01:10:00 20.3 C 12.49 g/m*3 20.3 C 0 km/h
16 31-07-2019 01:15:00 20.3 C 12.49 g/m*3 20.3 C 0 km/h
17 31-07-2019 01:20:00 20.3 C 12.49 g/m*3 20.3 C 0 km/h
18 31-07-2019 01:25:00 20.3 C 12.49 g/m*3 20.3 C 0 km/h
19 31-07-2019 01:30:00 20.3 C 12.49 g/m*3 20.3 C 0 km/h
20 31-07-2019 01:35:00 20.3 C 12.49 g/m*3 20.3 C 6.4 km/h
21 31-07-2019 01:40:00 20.4 C 12.56 g/m*3 20.4 C 6.4 km/h
22 31-07-2019 01:45:00 20.4 C 12.56 g/m*3 20.4 C 0 km/h
23 31-07-2019 01:50:00 20.4 C 12.56 g/m*3 20.4 C 0 km/h
24 31-07-2019 01:55:00 20.3 C 12.49 g/m*3 20.3 C 0 km/h
25 31-07-2019 02:00:00 20.2 C 12.41 g/m*3 20.2 C 0 km/h
Sensor: Nr:Datum:Temp:Abs-Feuchte:Windchill:Wind:
Aussen-T/F 26 31-07-2019 02:05:00 20.1 C 12.34 g/m*3 20.1 C 0 km/h
27 31-07-2019 02:10:00 19.9 C 12.2 g/m*3 19.9 C 0 km/h
28 31-07-2019 02:15:00 19.8 C 12.13 g/m*3 19.8 C 0 km/h
29 31-07-2019 02:20:00 19.8 C 12.3 g/m*3 19.8 C 0 km/h
30 31-07-2019 02:25:00 19.7 C 12.23 g/m*3 19.7 C 0 km/h
31 31-07-2019 02:30:00 19.7 C 12.23 g/m*3 19.7 C 0 km/h
32 31-07-2019 02:35:00 19.6 C 12.15 g/m*3 19.6 C 0 km/h
33 31-07-2019 02:40:00 19.6 C 12.15 g/m*3 19.6 C 0 km/h
34 31-07-2019 02:45:00 19.4 C 12.01 g/m*3 19.4 C 0 km/h
35 31-07-2019 02:50:00 19.4 C 12.01 g/m*3 19.4 C 0 km/h
36 31-07-2019 02:55:00 19.3 C 11.94 g/m*3 19.3 C 0 km/h
37 31-07-2019 03:00:00 19.2 C 11.87 g/m*3 19.2 C 0 km/h
38 31-07-2019 03:05:00 19.1 C 11.97 g/m*3 19.1 C 0 km/h
39 31-07-2019 03:10:00 18.9 C 11.83 g/m*3 18.9 C 0 km/h
40 31-07-2019 03:15:00 18.8 C 11.92 g/m*3 18.8 C 0 km/h
41 31-07-2019 03:20:00 18.7 C 11.85 g/m*3 18.7 C 0 km/h
42 31-07-2019 03:25:00 18.6 C 11.94 g/m*3 18.6 C 0 km/h
43 31-07-2019 03:30:00 18.6 C 12.1 g/m*3 18.6 C 0 km/h
44 31-07-2019 03:35:00 18.4 C 11.95 g/m*3 18.4 C 0 km/h
45 31-07-2019 03:40:00 18.4 C 11.95 g/m*3 18.4 C 1.6 km/h
46 31-07-2019 03:45:00 18.3 C 12.04 g/m*3 18.3 C 1.6 km/h
47 31-07-2019 03:50:00 18.3 C 12.04 g/m*3 18.3 C 0 km/h
48 31-07-2019 03:55:00 18.3 C 12.2 g/m*3 18.3 C 0 km/h
49 31-07-2019 04:00:00 18.3 C 12.2 g/m*3 18.3 C 0 km/h
50 31-07-2019 04:05:00 18.3 C 12.35 g/m*3 18.3 C 0 km/h
Sensor: Nr:Datum:Temp:Abs-Feuchte:Windchill:Wind:
Aussen-T/F 51 31-07-2019 04:10:00 18.3 C 12.2 g/m*3 18.3 C 3.2 km/h
52 31-07-2019 04:15:00 18.4 C 12.27 g/m*3 18.4 C 4.8 km/h
53 31-07-2019 04:20:00 18.6 C 12.26 g/m*3 18.6 C 3.2 km/h
54 31-07-2019 04:25:00 18.7 C 12.33 g/m*3 18.7 C 0 km/h
55 31-07-2019 04:30:00 18.7 C 12.17 g/m*3 18.7 C 0 km/h
56 31-07-2019 04:35:00 18.7 C 12.17 g/m*3 18.7 C 0 km/h
57 31-07-2019 04:40:00 18.8 C 12.24 g/m*3 18.8 C 0 km/h
58 31-07-2019 04:45:00 18.8 C 12.4 g/m*3 18.8 C 0 km/h
59 31-07-2019 04:50:00 18.7 C 12.17 g/m*3 18.7 C 0 km/h
60 31-07-2019 04:55:00 18.6 C 12.1 g/m*3 18.6 C 0 km/h
61 31-07-2019 05:00:00 18.4 C 11.95 g/m*3 18.4 C 0 km/h
62 31-07-2019 05:05:00 18.3 C 11.88 g/m*3 18.3 C 0 km/h
63 31-07-2019 05:10:00 18.1 C 11.74 g/m*3 18.1 C 0 km/h
64 31-07-2019 05:15:00 17.9 C 11.76 g/m*3 17.9 C 0 km/h
65 31-07-2019 05:20:00 17.8 C 11.84 g/m*3 17.8 C 0 km/h
66 31-07-2019 05:25:00 17.7 C 11.77 g/m*3 17.7 C 0 km/h
67 31-07-2019 05:30:00 17.7 C 11.92 g/m*3 17.7 C 0 km/h
68 31-07-2019 05:35:00 17.6 C 11.85 g/m*3 17.6 C 0 km/h
69 31-07-2019 05:40:00 17.6 C 11.85 g/m*3 17.6 C 0 km/h
70 31-07-2019 05:45:00 17.6 C 11.85 g/m*3 17.6 C 0 km/h
71 31-07-2019 05:50:00 17.6 C 12 g/m*3 17.6 C 0 km/h
72 31-07-2019 05:55:00 17.7 C 11.92 g/m*3 17.7 C 0 km/h
73 31-07-2019 06:00:00 17.7 C 11.92 g/m*3 17.7 C 0 km/h
74 31-07-2019 06:05:00 17.7 C 11.92 g/m*3 17.7 C 0 km/h
75 31-07-2019 06:10:00 17.7 C 11.92 g/m*3 17.7 C 0 km/h
Sensor: Nr:Datum:Temp:Abs-Feuchte:Windchill:Wind:
Aussen-T/F 76 31-07-2019 06:15:00 17.8 C 11.84 g/m*3 17.8 C 0 km/h
77 31-07-2019 06:20:00 17.8 C 11.84 g/m*3 17.8 C 0 km/h
78 31-07-2019 06:25:00 17.7 C 11.77 g/m*3 17.7 C 0 km/h
79 31-07-2019 06:30:00 17.7 C 11.77 g/m*3 17.7 C 0 km/h
80 31-07-2019 06:35:00 17.7 C 11.77 g/m*3 17.7 C 0 km/h
81 31-07-2019 06:40:00 17.6 C 11.7 g/m*3 17.6 C 0 km/h
82 31-07-2019 06:45:00 17.5 C 11.63 g/m*3 17.5 C 0 km/h
83 31-07-2019 06:50:00 17.4 C 11.71 g/m*3 17.4 C 0 km/h
84 31-07-2019 06:55:00 17.4 C 11.71 g/m*3 17.4 C 0 km/h
85 31-07-2019 07:00:00 17.3 C 11.64 g/m*3 17.3 C 0 km/h
86 31-07-2019 07:05:00 17.3 C 11.79 g/m*3 17.3 C 0 km/h
87 31-07-2019 07:10:00 17.3 C 11.79 g/m*3 17.3 C 1.6 km/h
88 31-07-2019 07:15:00 17.3 C 11.79 g/m*3 17.3 C 0 km/h
89 31-07-2019 07:20:00 17.3 C 11.79 g/m*3 17.3 C 0 km/h
90 31-07-2019 07:25:00 17.3 C 11.79 g/m*3 17.3 C 0 km/h
91 31-07-2019 07:30:00 17.3 C 11.79 g/m*3 17.3 C 0 km/h
92 31-07-2019 07:35:00 17.4 C 11.86 g/m*3 17.4 C 0 km/h
93 31-07-2019 07:40:00 17.4 C 11.86 g/m*3 17.4 C 0 km/h
94 31-07-2019 07:45:00 17.4 C 11.86 g/m*3 17.4 C 0 km/h
95 31-07-2019 07:50:00 17.6 C 12 g/m*3 17.6 C 1.6 km/h
96 31-07-2019 07:55:00 17.6 C 12 g/m*3 17.6 C 0 km/h
97 31-07-2019 08:00:00 17.7 C 11.92 g/m*3 17.7 C 0 km/h
98 31-07-2019 08:05:00 17.8 C 11.84 g/m*3 17.8 C 4.8 km/h
99 31-07-2019 08:10:00 17.9 C 11.91 g/m*3 17.9 C 0 km/h
100 31-07-2019 08:15:00 18 C 11.98 g/m*3 18 C 0 km/h
Sensor: Nr:Datum:Temp:Abs-Feuchte:Windchill:Wind:
Aussen-T/F 101 31-07-2019 08:20:00 18.1 C 12.21 g/m*3 18.1 C 0 km/h
102 31-07-2019 08:25:00 18.2 C 11.81 g/m*3 18.2 C 4.8 km/h
103 31-07-2019 08:30:00 18.4 C 11.8 g/m*3 18.4 C 6.4 km/h
104 31-07-2019 08:35:00 18.7 C 11.85 g/m*3 18.7 C 6.4 km/h
105 31-07-2019 08:40:00 18.9 C 11.83 g/m*3 18.9 C 9.7 km/h
106 31-07-2019 08:45:00 19.1 C 11.8 g/m*3 19.1 C 9.7 km/h
107 31-07-2019 08:50:00 19.2 C 11.87 g/m*3 19.2 C 6.4 km/h
108 31-07-2019 08:55:00 19.3 C 11.78 g/m*3 19.3 C 9.7 km/h
109 31-07-2019 09:00:00 19.4 C 12.01 g/m*3 19.4 C 3.2 km/h
110 31-07-2019 09:05:00 19.5 C 11.92 g/m*3 19.5 C 9.7 km/h
111 31-07-2019 09:10:00 19.6 C 11.82 g/m*3 19.6 C 4.8 km/h
112 31-07-2019 09:15:00 19.8 C 11.96 g/m*3 19.8 C 8.1 km/h
113 31-07-2019 09:20:00 19.8 C 11.79 g/m*3 19.8 C 6.4 km/h
114 31-07-2019 09:25:00 19.9 C 11.68 g/m*3 19.9 C 12.9 km/h
115 31-07-2019 09:30:00 20.1 C 11.65 g/m*3 20.1 C 12.9 km/h
116 31-07-2019 09:35:00 20.2 C 11.71 g/m*3 20.2 C 8.1 km/h
117 31-07-2019 09:40:00 20.4 C 11.68 g/m*3 20.4 C 12.9 km/h
118 31-07-2019 09:45:00 20.4 C 11.5 g/m*3 20.4 C 20.9 km/h
119 31-07-2019 09:50:00 20.5 C 11.39 g/m*3 20.5 C 17.7 km/h
120 31-07-2019 09:55:00 20.6 C 11.28 g/m*3 20.6 C 11.3 km/h
121 31-07-2019 10:00:00 20.7 C 11.52 g/m*3 20.7 C 9.7 km/h
122 31-07-2019 10:05:00 20.8 C 11.23 g/m*3 20.8 C 12.9 km/h
123 31-07-2019 10:10:00 20.9 C 11.11 g/m*3 20.9 C 9.7 km/h
124 31-07-2019 10:15:00 21.2 C 11.3 g/m*3 21.2 C 9.7 km/h
125 31-07-2019 10:20:00 21.4 C 11.06 g/m*3 21.4 C 12.9 km/h
Sensor: Nr:Datum:Temp:Abs-Feuchte:Windchill:Wind:
Aussen-T/F 126 31-07-2019 10:25:00 21.4 C 10.69 g/m*3 21.4 C 17.7 km/h
127 31-07-2019 10:30:00 21.4 C 10.69 g/m*3 21.4 C 11.3 km/h
128 31-07-2019 10:35:00 21.5 C 10.56 g/m*3 21.5 C 14.5 km/h
129 31-07-2019 10:40:00 21.7 C 10.87 g/m*3 21.7 C 14.5 km/h
130 31-07-2019 10:45:00 21.8 C 11.13 g/m*3 21.8 C 14.5 km/h
131 31-07-2019 10:50:00 21.8 C 10.74 g/m*3 21.8 C 14.5 km/h
132 31-07-2019 10:55:00 21.7 C 10.87 g/m*3 21.7 C 16.1 km/h
133 31-07-2019 11:00:00 21.5 C 10.56 g/m*3 21.5 C 9.7 km/h
134 31-07-2019 11:05:00 21.3 C 10.44 g/m*3 21.3 C 16.1 km/h
135 31-07-2019 11:10:00 21.1 C 10.69 g/m*3 21.1 C 9.7 km/h
136 31-07-2019 11:15:00 21.1 C 10.5 g/m*3 21.1 C 4.8 km/h
137 31-07-2019 11:20:00 21.2 C 10.56 g/m*3 21.2 C 8.1 km/h
138 31-07-2019 11:25:00 21.4 C 10.5 g/m*3 21.4 C 14.5 km/h
139 31-07-2019 11:30:00 21.6 C 10.43 g/m*3 21.6 C 12.9 km/h
140 31-07-2019 11:35:00 21.8 C 10.36 g/m*3 21.8 C 16.1 km/h
141 31-07-2019 11:40:00 21.9 C 10.42 g/m*3 21.9 C 11.3 km/h
142 31-07-2019 11:45:00 22 C 10.48 g/m*3 22 C 14.5 km/h
143 31-07-2019 11:50:00 22.2 C 10.41 g/m*3 22.2 C 22.5 km/h
144 31-07-2019 11:55:00 22.2 C 10.41 g/m*3 22.2 C 22.5 km/h
145 31-07-2019 12:00:00 22.1 C 10.15 g/m*3 22.1 C 16.1 km/h
146 31-07-2019 12:05:00 22.2 C 10.21 g/m*3 22.2 C 22.5 km/h
147 31-07-2019 12:10:00 22.3 C 10.27 g/m*3 22.3 C 11.3 km/h
148 31-07-2019 12:15:00 22.6 C 10.65 g/m*3 22.6 C 16.1 km/h
149 31-07-2019 12:20:00 22.8 C 10.57 g/m*3 22.8 C 14.5 km/h
150 31-07-2019 12:25:00 22.9 C 10.42 g/m*3 22.9 C 22.5 km/h
Sensor: Nr:Datum:Temp:Abs-Feuchte:Windchill:Wind:
Aussen-T/F 151 31-07-2019 12:30:00 22.9 C 9.81 g/m*3 22.9 C 17.7 km/h
152 31-07-2019 12:35:00 22.7 C 9.9 g/m*3 22.7 C 14.5 km/h
153 31-07-2019 12:40:00 22.8 C 9.96 g/m*3 22.8 C 12.9 km/h
154 31-07-2019 12:45:00 22.8 C 10.16 g/m*3 22.8 C 19.3 km/h
155 31-07-2019 12:50:00 22.9 C 10.42 g/m*3 22.9 C 16.1 km/h
156 31-07-2019 12:55:00 23 C 10.48 g/m*3 23 C 16.1 km/h
157 31-07-2019 13:00:00 23.1 C 10.75 g/m*3 23.1 C 12.9 km/h
158 31-07-2019 13:05:00 23.2 C 10.6 g/m*3 23.2 C 12.9 km/h
159 31-07-2019 13:10:00 23.3 C 10.25 g/m*3 23.3 C 14.5 km/h
160 31-07-2019 13:15:00 23.3 C 9.83 g/m*3 23.3 C 14.5 km/h
161 31-07-2019 13:20:00 23.4 C 9.88 g/m*3 23.4 C 19.3 km/h
162 31-07-2019 13:25:00 23.6 C 10 g/m*3 23.6 C 16.1 km/h
163 31-07-2019 13:30:00 23.9 C 9.95 g/m*3 23.9 C 12.9 km/h
164 31-07-2019 13:35:00 24 C 9.79 g/m*3 24 C 14.5 km/h
165 31-07-2019 13:40:00 24 C 10.01 g/m*3 24 C 17.7 km/h
166 31-07-2019 13:45:00 24.1 C 9.85 g/m*3 24.1 C 14.5 km/h
167 31-07-2019 13:50:00 24.2 C 9.68 g/m*3 24.2 C 11.3 km/h
168 31-07-2019 13:55:00 24.2 C 9.9 g/m*3 24.2 C 22.5 km/h
169 31-07-2019 14:00:00 24.3 C 9.74 g/m*3 24.3 C 14.5 km/h
170 31-07-2019 14:05:00 24.4 C 9.79 g/m*3 24.4 C 12.9 km/h
171 31-07-2019 14:10:00 24.3 C 9.52 g/m*3 24.3 C 16.1 km/h
172 31-07-2019 14:15:00 24.4 C 9.57 g/m*3 24.4 C 14.5 km/h
173 31-07-2019 14:20:00 24.5 C 9.85 g/m*3 24.5 C 9.7 km/h
174 31-07-2019 14:25:00 24.7 C 9.96 g/m*3 24.7 C 9.7 km/h
175 31-07-2019 14:30:00 25 C 9.67 g/m*3 25 C 14.5 km/h
Sensor: Nr:Datum:Temp:Abs-Feuchte:Windchill:Wind:
Aussen-T/F 176 31-07-2019 14:35:00 25.1 C 9.49 g/m*3 25.1 C 14.5 km/h
177 31-07-2019 14:40:00 24.9 C 9.39 g/m*3 24.9 C 20.9 km/h
178 31-07-2019 14:45:00 25.1 C 9.49 g/m*3 25.1 C 14.5 km/h
179 31-07-2019 14:50:00 25.2 C 9.54 g/m*3 25.2 C 14.5 km/h
180 31-07-2019 14:55:00 25.3 C 9.6 g/m*3 25.3 C 14.5 km/h
181 31-07-2019 15:00:00 25.4 C 9.18 g/m*3 25.4 C 16.1 km/h
182 31-07-2019 15:05:00 25.4 C 9.42 g/m*3 25.4 C 14.5 km/h
183 31-07-2019 15:10:00 25.1 C 9.49 g/m*3 25.1 C 11.3 km/h
184 31-07-2019 15:15:00 25.1 C 9.95 g/m*3 25.1 C 6.4 km/h
185 31-07-2019 15:20:00 25.4 C 9.42 g/m*3 25.4 C 17.7 km/h
186 31-07-2019 15:25:00 25.8 C 9.63 g/m*3 25.8 C 14.5 km/h
187 31-07-2019 15:30:00 26 C 9.49 g/m*3 26 C 20.9 km/h
188 31-07-2019 15:35:00 26 C 9.49 g/m*3 26 C 14.5 km/h
189 31-07-2019 15:40:00 25.6 C 9.52 g/m*3 25.6 C 12.9 km/h
190 31-07-2019 15:45:00 25.7 C 9.58 g/m*3 25.7 C 16.1 km/h
191 31-07-2019 15:50:00 25.6 C 9.52 g/m*3 25.6 C 12.9 km/h
192 31-07-2019 15:55:00 25.5 C 9.47 g/m*3 25.5 C 11.3 km/h
193 31-07-2019 16:00:00 25.9 C 9.68 g/m*3 25.9 C 17.7 km/h
194 31-07-2019 16:05:00 26.3 C 9.41 g/m*3 26.3 C 16.1 km/h
195 31-07-2019 16:10:00 25.8 C 9.39 g/m*3 25.8 C 9.7 km/h
196 31-07-2019 16:15:00 25.2 C 9.54 g/m*3 25.2 C 19.3 km/h
197 31-07-2019 16:20:00 24.8 C 9.56 g/m*3 24.8 C 16.1 km/h
198 31-07-2019 16:25:00 24.7 C 9.73 g/m*3 24.7 C 9.7 km/h
199 31-07-2019 16:30:00 24.6 C 9.68 g/m*3 24.6 C 14.5 km/h
200 31-07-2019 16:35:00 24.4 C 9.57 g/m*3 24.4 C 17.7 km/h
Sensor: Nr:Datum:Temp:Abs-Feuchte:Windchill:Wind:
Aussen-T/F 201 31-07-2019 16:40:00 24.3 C 9.74 g/m*3 24.3 C 12.9 km/h
202 31-07-2019 16:45:00 24.3 C 9.96 g/m*3 24.3 C 9.7 km/h
203 31-07-2019 16:50:00 24.4 C 10.01 g/m*3 24.4 C 11.3 km/h
204 31-07-2019 16:55:00 24.8 C 10.24 g/m*3 24.8 C 9.7 km/h
205 31-07-2019 17:00:00 24.8 C 10.02 g/m*3 24.8 C 14.5 km/h
206 31-07-2019 17:05:00 25.1 C 10.19 g/m*3 25.1 C 20.9 km/h
207 31-07-2019 17:10:00 25.4 C 10.12 g/m*3 25.4 C 16.1 km/h
208 31-07-2019 17:15:00 25.6 C 10.24 g/m*3 25.6 C 17.7 km/h
209 31-07-2019 17:20:00 25.7 C 10.29 g/m*3 25.7 C 19.3 km/h
210 31-07-2019 17:25:00 25.4 C 10.12 g/m*3 25.4 C 14.5 km/h
211 31-07-2019 17:30:00 25.2 C 9.54 g/m*3 25.2 C 11.3 km/h
212 31-07-2019 17:35:00 25.2 C 9.78 g/m*3 25.2 C 9.7 km/h
213 31-07-2019 17:40:00 25.1 C 9.95 g/m*3 25.1 C 11.3 km/h
214 31-07-2019 17:45:00 25.1 C 9.95 g/m*3 25.1 C 9.7 km/h
215 31-07-2019 17:50:00 25.2 C 10.01 g/m*3 25.2 C 14.5 km/h
216 31-07-2019 17:55:00 25.2 C 10.01 g/m*3 25.2 C 11.3 km/h
217 31-07-2019 18:00:00 24.8 C 10.02 g/m*3 24.8 C 14.5 km/h
218 31-07-2019 18:05:00 24.4 C 10.01 g/m*3 24.4 C 12.9 km/h
219 31-07-2019 18:10:00 24.2 C 10.12 g/m*3 24.2 C 9.7 km/h
220 31-07-2019 18:15:00 23.9 C 9.95 g/m*3 23.9 C 9.7 km/h
221 31-07-2019 18:20:00 23.8 C 10.33 g/m*3 23.8 C 6.4 km/h
222 31-07-2019 18:25:00 23.7 C 10.05 g/m*3 23.7 C 9.7 km/h
223 31-07-2019 18:30:00 23.7 C 10.05 g/m*3 23.7 C 8.1 km/h
224 31-07-2019 18:35:00 23.6 C 10.21 g/m*3 23.6 C 9.7 km/h
225 31-07-2019 18:40:00 23.6 C 10.63 g/m*3 23.6 C 0 km/h
Sensor: Nr:Datum:Temp:Abs-Feuchte:Windchill:Wind:
Aussen-T/F 226 31-07-2019 18:45:00 23.6 C 10.21 g/m*3 23.6 C 4.8 km/h
227 31-07-2019 18:50:00 23.6 C 10.21 g/m*3 23.6 C 8.1 km/h
228 31-07-2019 18:55:00 23.6 C 10.21 g/m*3 23.6 C 3.2 km/h
229 31-07-2019 19:00:00 23.6 C 10.21 g/m*3 23.6 C 4.8 km/h
230 31-07-2019 19:05:00 23.7 C 10.05 g/m*3 23.7 C 11.3 km/h
231 31-07-2019 19:10:00 23.9 C 10.38 g/m*3 23.9 C 11.3 km/h
232 31-07-2019 19:15:00 24 C 10.44 g/m*3 24 C 4.8 km/h
233 31-07-2019 19:20:00 23.9 C 10.82 g/m*3 23.9 C 4.8 km/h
234 31-07-2019 19:25:00 23.7 C 10.69 g/m*3 23.7 C 4.8 km/h
235 31-07-2019 19:30:00 23.4 C 10.51 g/m*3 23.4 C 6.4 km/h
236 31-07-2019 19:35:00 23.3 C 9.62 g/m*3 23.3 C 9.7 km/h
237 31-07-2019 19:40:00 23.2 C 9.36 g/m*3 23.2 C 8.1 km/h
238 31-07-2019 19:45:00 23.2 C 9.56 g/m*3 23.2 C 4.8 km/h
239 31-07-2019 19:50:00 23.1 C 10.54 g/m*3 23.1 C 8.1 km/h
240 31-07-2019 19:55:00 22.9 C 10.83 g/m*3 22.9 C 4.8 km/h
241 31-07-2019 20:00:00 22.8 C 10.77 g/m*3 22.8 C 4.8 km/h
242 31-07-2019 20:05:00 22.7 C 10.71 g/m*3 22.7 C 3.2 km/h
243 31-07-2019 20:10:00 22.4 C 10.53 g/m*3 22.4 C 3.2 km/h
244 31-07-2019 20:15:00 22.3 C 10.66 g/m*3 22.3 C 4.8 km/h
245 31-07-2019 20:20:00 22.2 C 10.6 g/m*3 22.2 C 1.6 km/h
246 31-07-2019 20:25:00 22.2 C 10.99 g/m*3 22.2 C 0 km/h
247 31-07-2019 20:30:00 22.2 C 11.19 g/m*3 22.2 C 0 km/h
248 31-07-2019 20:35:00 22.1 C 11.13 g/m*3 22.1 C 0 km/h
249 31-07-2019 20:40:00 21.9 C 11 g/m*3 21.9 C 0 km/h
250 31-07-2019 20:45:00 21.7 C 11.06 g/m*3 21.7 C 0 km/h
Sensor: Nr:Datum:Temp:Abs-Feuchte:Windchill:Wind:
Aussen-T/F 251 31-07-2019 20:50:00 21.4 C 10.87 g/m*3 21.4 C 0 km/h
252 31-07-2019 20:55:00 21.2 C 10.93 g/m*3 21.2 C 0 km/h
253 31-07-2019 21:00:00 21 C 10.99 g/m*3 21 C 0 km/h
254 31-07-2019 21:05:00 20.8 C 10.86 g/m*3 20.8 C 0 km/h
255 31-07-2019 21:10:00 20.7 C 10.98 g/m*3 20.7 C 0 km/h
256 31-07-2019 21:15:00 20.4 C 10.61 g/m*3 20.4 C 0 km/h
257 31-07-2019 21:20:00 20.2 C 10.49 g/m*3 20.2 C 0 km/h
258 31-07-2019 21:25:00 20 C 10.37 g/m*3 20 C 0 km/h
259 31-07-2019 21:30:00 19.8 C 10.08 g/m*3 19.8 C 0 km/h
260 31-07-2019 21:35:00 19.6 C 9.96 g/m*3 19.6 C 0 km/h
261 31-07-2019 21:40:00 19.4 C 9.84 g/m*3 19.4 C 0 km/h
262 31-07-2019 21:45:00 19.2 C 9.73 g/m*3 19.2 C 0 km/h
263 31-07-2019 21:50:00 19.1 C 9.67 g/m*3 19.1 C 0 km/h
264 31-07-2019 21:55:00 18.9 C 9.72 g/m*3 18.9 C 0 km/h
265 31-07-2019 22:00:00 18.8 C 9.66 g/m*3 18.8 C 0 km/h
266 31-07-2019 22:05:00 18.7 C 9.77 g/m*3 18.7 C 0 km/h
267 31-07-2019 22:10:00 18.7 C 9.61 g/m*3 18.7 C 0 km/h
268 31-07-2019 22:15:00 18.6 C 9.71 g/m*3 18.6 C 0 km/h
269 31-07-2019 22:20:00 18.6 C 9.71 g/m*3 18.6 C 0 km/h
270 31-07-2019 22:25:00 18.6 C 9.71 g/m*3 18.6 C 0 km/h
271 31-07-2019 22:30:00 18.6 C 9.71 g/m*3 18.6 C 0 km/h
272 31-07-2019 22:35:00 18.6 C 9.71 g/m*3 18.6 C 0 km/h
273 31-07-2019 22:40:00 18.7 C 9.93 g/m*3 18.7 C 0 km/h
274 31-07-2019 22:45:00 18.7 C 9.93 g/m*3 18.7 C 0 km/h
275 31-07-2019 22:50:00 18.8 C 9.82 g/m*3 18.8 C 3.2 km/h
Sensor: Nr:Datum:Temp:Abs-Feuchte:Windchill:Wind:
Aussen-T/F 276 31-07-2019 22:55:00 18.8 C 9.82 g/m*3 18.8 C 1.6 km/h
277 31-07-2019 23:00:00 18.9 C 9.88 g/m*3 18.9 C 0 km/h
278 31-07-2019 23:05:00 18.9 C 9.88 g/m*3 18.9 C 1.6 km/h
279 31-07-2019 23:10:00 18.9 C 9.88 g/m*3 18.9 C 1.6 km/h
280 31-07-2019 23:15:00 18.8 C 9.99 g/m*3 18.8 C 1.6 km/h
281 31-07-2019 23:20:00 18.8 C 9.99 g/m*3 18.8 C 0 km/h
282 31-07-2019 23:25:00 18.7 C 9.93 g/m*3 18.7 C 0 km/h
283 31-07-2019 23:30:00 18.5 C 9.97 g/m*3 18.5 C 0 km/h
284 31-07-2019 23:35:00 18.4 C 9.91 g/m*3 18.4 C 0 km/h
285 31-07-2019 23:40:00 18.2 C 9.95 g/m*3 18.2 C 0 km/h
286 31-07-2019 23:45:00 17.9 C 9.92 g/m*3 17.9 C 0 km/h
287 31-07-2019 23:50:00 17.8 C 10.02 g/m*3 17.8 C 0 km/h
288 31-07-2019 23:55:00 17.6 C 10.05 g/m*3 17.6 C 0 km/h
289 01-08-2019 00:00:00 17.4 C 10.08 g/m*3 17.4 C 0 km/h
290 01-08-2019 00:05:00 17.3 C 10.16 g/m*3 17.3 C 0 km/h
291 01-08-2019 00:10:00 17.2 C 10.1 g/m*3 17.2 C 0 km/h
292 01-08-2019 00:15:00 17.1 C 10.19 g/m*3 17.1 C 0 km/h
293 01-08-2019 00:20:00 17 C 10.13 g/m*3 17 C 0 km/h
294 01-08-2019 00:25:00 16.9 C 10.21 g/m*3 16.9 C 0 km/h
295 01-08-2019 00:30:00 16.9 C 10.21 g/m*3 16.9 C 1.6 km/h
296 01-08-2019 00:35:00 16.8 C 10.01 g/m*3 16.8 C 0 km/h
297 01-08-2019 00:40:00 16.7 C 10.09 g/m*3 16.7 C 0 km/h
298 01-08-2019 00:45:00 16.6 C 10.03 g/m*3 16.6 C 0 km/h
299 01-08-2019 00:50:00 16.4 C 9.91 g/m*3 16.4 C 3.2 km/h
300 01-08-2019 00:55:00 16.3 C 9.99 g/m*3 16.3 C 0 km/h
Sensor: Nr:Datum:Temp:Abs-Feuchte:Windchill:Wind:
Aussen-T/F 301 01-08-2019 01:00:00 16.1 C 10.01 g/m*3 16.1 C 0 km/h
302 01-08-2019 01:05:00 15.9 C 9.89 g/m*3 15.9 C 1.6 km/h
303 01-08-2019 01:10:00 15.8 C 9.96 g/m*3 15.8 C 0 km/h
304 01-08-2019 01:15:00 15.7 C 10.03 g/m*3 15.7 C 0 km/h
305 01-08-2019 01:20:00 15.6 C 9.97 g/m*3 15.6 C 0 km/h
306 01-08-2019 01:25:00 15.6 C 9.97 g/m*3 15.6 C 0 km/h
307 01-08-2019 01:30:00 15.4 C 9.85 g/m*3 15.4 C 0 km/h
308 01-08-2019 01:35:00 15.4 C 9.85 g/m*3 15.4 C 0 km/h
309 01-08-2019 01:40:00 15.3 C 9.92 g/m*3 15.3 C 0 km/h
310 01-08-2019 01:45:00 15.2 C 9.86 g/m*3 15.2 C 0 km/h
311 01-08-2019 01:50:00 15.2 C 9.86 g/m*3 15.2 C 0 km/h
312 01-08-2019 01:55:00 15.1 C 9.93 g/m*3 15.1 C 0 km/h
313 01-08-2019 02:00:00 15.1 C 9.93 g/m*3 15.1 C 0 km/h
314 01-08-2019 02:05:00 14.9 C 9.81 g/m*3 14.9 C 1.6 km/h
315 01-08-2019 02:10:00 14.9 C 9.94 g/m*3 14.9 C 0 km/h
316 01-08-2019 02:15:00 14.8 C 9.88 g/m*3 14.8 C 0 km/h
317 01-08-2019 02:20:00 14.8 C 10.01 g/m*3 14.8 C 0 km/h
318 01-08-2019 02:25:00 14.7 C 9.95 g/m*3 14.7 C 0 km/h
319 01-08-2019 02:30:00 14.6 C 9.89 g/m*3 14.6 C 0 km/h
320 01-08-2019 02:35:00 14.6 C 10.01 g/m*3 14.6 C 0 km/h
321 01-08-2019 02:40:00 14.6 C 10.01 g/m*3 14.6 C 0 km/h
322 01-08-2019 02:45:00 14.6 C 10.01 g/m*3 14.6 C 0 km/h
323 01-08-2019 02:50:00 14.6 C 10.01 g/m*3 14.6 C 1.6 km/h
324 01-08-2019 02:55:00 14.6 C 10.01 g/m*3 14.6 C 1.6 km/h
325 01-08-2019 03:00:00 14.6 C 10.14 g/m*3 14.6 C 0 km/h
Sensor: Nr:Datum:Temp:Abs-Feuchte:Windchill:Wind:
Aussen-T/F 326 01-08-2019 03:05:00 14.6 C 10.14 g/m*3 14.6 C 0 km/h
327 01-08-2019 03:10:00 14.7 C 10.07 g/m*3 14.7 C 0 km/h
328 01-08-2019 03:15:00 14.6 C 10.01 g/m*3 14.6 C 1.6 km/h
329 01-08-2019 03:20:00 14.5 C 9.95 g/m*3 14.5 C 0 km/h
330 01-08-2019 03:25:00 14.3 C 9.83 g/m*3 14.3 C 0 km/h
331 01-08-2019 03:30:00 14.2 C 9.89 g/m*3 14.2 C 0 km/h
332 01-08-2019 03:35:00 14 C 9.77 g/m*3 14 C 0 km/h
333 01-08-2019 03:40:00 13.8 C 9.65 g/m*3 13.8 C 0 km/h
334 01-08-2019 03:45:00 13.7 C 9.71 g/m*3 13.7 C 1.6 km/h
335 01-08-2019 03:50:00 13.5 C 9.59 g/m*3 13.5 C 0 km/h
336 01-08-2019 03:55:00 13.4 C 9.65 g/m*3 13.4 C 0 km/h
337 01-08-2019 04:00:00 13.3 C 9.59 g/m*3 13.3 C 0 km/h
338 01-08-2019 04:05:00 13.2 C 9.53 g/m*3 13.2 C 0 km/h
339 01-08-2019 04:10:00 13.1 C 9.59 g/m*3 13.1 C 0 km/h
340 01-08-2019 04:15:00 13 C 9.53 g/m*3 13 C 0 km/h
341 01-08-2019 04:20:00 13 C 9.64 g/m*3 13 C 0 km/h
342 01-08-2019 04:25:00 12.9 C 9.58 g/m*3 12.9 C 0 km/h
343 01-08-2019 04:30:00 12.9 C 9.58 g/m*3 12.9 C 0 km/h
344 01-08-2019 04:35:00 12.8 C 9.63 g/m*3 12.8 C 1.6 km/h
345 01-08-2019 04:40:00 12.8 C 9.63 g/m*3 12.8 C 0 km/h
346 01-08-2019 04:45:00 12.9 C 9.69 g/m*3 12.9 C 1.6 km/h
347 01-08-2019 04:50:00 12.8 C 9.63 g/m*3 12.8 C 0 km/h
348 01-08-2019 04:55:00 12.8 C 9.63 g/m*3 12.8 C 4.8 km/h
349 01-08-2019 05:00:00 12.8 C 9.63 g/m*3 12.8 C 1.6 km/h
350 01-08-2019 05:05:00 12.8 C 9.63 g/m*3 12.8 C 0 km/h
Sensor: Nr:Datum:Temp:Abs-Feuchte:Windchill:Wind:
Aussen-T/F 351 01-08-2019 05:10:00 12.7 C 9.57 g/m*3 12.7 C 0 km/h
352 01-08-2019 05:15:00 12.7 C 9.68 g/m*3 12.7 C 0 km/h
353 01-08-2019 05:20:00 12.6 C 9.62 g/m*3 12.6 C 0 km/h
354 01-08-2019 05:25:00 12.6 C 9.62 g/m*3 12.6 C 1.6 km/h
355 01-08-2019 05:30:00 12.7 C 9.8 g/m*3 12.7 C 1.6 km/h
356 01-08-2019 05:35:00 12.7 C 9.68 g/m*3 12.7 C 0 km/h
357 01-08-2019 05:40:00 12.6 C 9.62 g/m*3 12.6 C 0 km/h
358 01-08-2019 05:45:00 12.5 C 9.57 g/m*3 12.5 C 0 km/h
359 01-08-2019 05:50:00 12.4 C 9.51 g/m*3 12.4 C 0 km/h
360 01-08-2019 05:55:00 12.4 C 9.51 g/m*3 12.4 C 0 km/h
361 01-08-2019 06:00:00 12.3 C 9.56 g/m*3 12.3 C 0 km/h
362 01-08-2019 06:05:00 12.3 C 9.56 g/m*3 12.3 C 0 km/h
363 01-08-2019 06:10:00 12.2 C 9.5 g/m*3 12.2 C 0 km/h
364 01-08-2019 06:15:00 12.2 C 9.5 g/m*3 12.2 C 0 km/h
365 01-08-2019 06:20:00 12.1 C 9.44 g/m*3 12.1 C 0 km/h
366 01-08-2019 06:25:00 12.1 C 9.54 g/m*3 12.1 C 0 km/h
367 01-08-2019 06:30:00 12.1 C 9.44 g/m*3 12.1 C 0 km/h
368 01-08-2019 06:35:00 12 C 9.48 g/m*3 12 C 0 km/h
369 01-08-2019 06:40:00 12 C 9.48 g/m*3 12 C 0 km/h
370 01-08-2019 06:45:00 12 C 9.48 g/m*3 12 C 0 km/h
371 01-08-2019 06:50:00 12.1 C 9.54 g/m*3 12.1 C 0 km/h
372 01-08-2019 06:55:00 12.1 C 9.54 g/m*3 12.1 C 0 km/h
373 01-08-2019 07:00:00 12.1 C 9.54 g/m*3 12.1 C 0 km/h
374 01-08-2019 07:05:00 12.1 C 9.54 g/m*3 12.1 C 0 km/h
375 01-08-2019 07:10:00 12.1 C 9.54 g/m*3 12.1 C 0 km/h
Sensor: Nr:Datum:Temp:Abs-Feuchte:Windchill:Wind:
Aussen-T/F 376 01-08-2019 07:15:00 12.2 C 9.6 g/m*3 12.2 C 0 km/h
377 01-08-2019 07:20:00 12.2 C 9.6 g/m*3 12.2 C 0 km/h
378 01-08-2019 07:25:00 12.2 C 9.71 g/m*3 12.2 C 0 km/h
379 01-08-2019 07:30:00 12.3 C 9.77 g/m*3 12.3 C 0 km/h
380 01-08-2019 07:35:00 12.5 C 9.89 g/m*3 12.5 C 1.6 km/h
381 01-08-2019 07:40:00 12.8 C 10.08 g/m*3 12.8 C 1.6 km/h
382 01-08-2019 07:45:00 13.1 C 10.16 g/m*3 13.1 C 1.6 km/h
383 01-08-2019 07:50:00 13.4 C 10.23 g/m*3 13.4 C 0 km/h
384 01-08-2019 07:55:00 13.7 C 10.42 g/m*3 13.7 C 0 km/h
385 01-08-2019 08:00:00 13.9 C 10.43 g/m*3 13.9 C 0 km/h
386 01-08-2019 08:05:00 14.2 C 10.5 g/m*3 14.2 C 0 km/h
387 01-08-2019 08:10:00 14.4 C 10.51 g/m*3 14.4 C 0 km/h
388 01-08-2019 08:15:00 14.7 C 10.45 g/m*3 14.7 C 0 km/h
389 01-08-2019 08:20:00 15 C 10.64 g/m*3 15 C 0 km/h
390 01-08-2019 08:25:00 15.2 C 10.51 g/m*3 15.2 C 1.6 km/h
391 01-08-2019 08:30:00 15.3 C 10.45 g/m*3 15.3 C 1.6 km/h
392 01-08-2019 08:35:00 15.5 C 10.57 g/m*3 15.5 C 1.6 km/h
393 01-08-2019 08:40:00 15.7 C 10.57 g/m*3 15.7 C 3.2 km/h
394 01-08-2019 08:45:00 15.8 C 10.63 g/m*3 15.8 C 1.6 km/h
395 01-08-2019 08:50:00 16.1 C 10.69 g/m*3 16.1 C 0 km/h
396 01-08-2019 08:55:00 16.3 C 10.68 g/m*3 16.3 C 1.6 km/h
397 01-08-2019 09:00:00 16.6 C 10.88 g/m*3 16.6 C 3.2 km/h
398 01-08-2019 09:05:00 16.9 C 10.93 g/m*3 16.9 C 6.4 km/h
399 01-08-2019 09:10:00 17.2 C 10.98 g/m*3 17.2 C 6.4 km/h
400 01-08-2019 09:15:00 17.3 C 11.05 g/m*3 17.3 C 4.8 km/h
Sensor: Nr:Datum:Temp:Abs-Feuchte:Windchill:Wind:
Aussen-T/F 401 01-08-2019 09:20:00 17.4 C 10.97 g/m*3 17.4 C 6.4 km/h
402 01-08-2019 09:25:00 17.5 C 11.03 g/m*3 17.5 C 4.8 km/h
403 01-08-2019 09:30:00 17.6 C 10.95 g/m*3 17.6 C 4.8 km/h
404 01-08-2019 09:35:00 17.6 C 10.95 g/m*3 17.6 C 6.4 km/h
405 01-08-2019 09:40:00 17.7 C 11.01 g/m*3 17.7 C 4.8 km/h
406 01-08-2019 09:45:00 18 C 11.06 g/m*3 18 C 3.2 km/h
407 01-08-2019 09:50:00 18.3 C 11.1 g/m*3 18.3 C 1.6 km/h
408 01-08-2019 09:55:00 18.7 C 11.21 g/m*3 18.7 C 8.1 km/h
409 01-08-2019 10:00:00 19.2 C 11.21 g/m*3 19.2 C 9.7 km/h
410 01-08-2019 10:05:00 19.4 C 11.18 g/m*3 19.4 C 9.7 km/h
411 01-08-2019 10:10:00 19.7 C 11.04 g/m*3 19.7 C 8.1 km/h
412 01-08-2019 10:15:00 20 C 10.89 g/m*3 20 C 9.7 km/h
413 01-08-2019 10:20:00 20.2 C 11.02 g/m*3 20.2 C 12.9 km/h
414 01-08-2019 10:25:00 20.3 C 10.9 g/m*3 20.3 C 11.3 km/h
415 01-08-2019 10:30:00 20.5 C 10.68 g/m*3 20.5 C 11.3 km/h
416 01-08-2019 10:35:00 20.6 C 10.92 g/m*3 20.6 C 9.7 km/h
417 01-08-2019 10:40:00 20.7 C 10.98 g/m*3 20.7 C 9.7 km/h
418 01-08-2019 10:45:00 20.8 C 11.23 g/m*3 20.8 C 8.1 km/h
419 01-08-2019 10:50:00 21.1 C 10.87 g/m*3 21.1 C 12.9 km/h
420 01-08-2019 10:55:00 21.1 C 10.69 g/m*3 21.1 C 12.9 km/h
421 01-08-2019 11:00:00 21.2 C 10.56 g/m*3 21.2 C 11.3 km/h
422 01-08-2019 11:05:00 21.2 C 10.56 g/m*3 21.2 C 8.1 km/h
423 01-08-2019 11:10:00 21.3 C 10.62 g/m*3 21.3 C 4.8 km/h
424 01-08-2019 11:15:00 21.4 C 10.87 g/m*3 21.4 C 14.5 km/h
425 01-08-2019 11:20:00 21.6 C 10.81 g/m*3 21.6 C 11.3 km/h
Sensor: Nr:Datum:Temp:Abs-Feuchte:Windchill:Wind:
Aussen-T/F 426 01-08-2019 11:25:00 21.7 C 10.68 g/m*3 21.7 C 16.1 km/h
427 01-08-2019 11:30:00 21.9 C 10.61 g/m*3 21.9 C 16.1 km/h
428 01-08-2019 11:35:00 22.1 C 10.54 g/m*3 22.1 C 11.3 km/h
429 01-08-2019 11:40:00 22 C 10.67 g/m*3 22 C 17.7 km/h
430 01-08-2019 11:45:00 22.2 C 10.8 g/m*3 22.2 C 8.1 km/h
431 01-08-2019 11:50:00 22.3 C 10.66 g/m*3 22.3 C 12.9 km/h
432 01-08-2019 11:55:00 22.4 C 10.72 g/m*3 22.4 C 9.7 km/h
433 01-08-2019 12:00:00 22.4 C 10.72 g/m*3 22.4 C 11.3 km/h
434 01-08-2019 12:05:00 22.6 C 10.65 g/m*3 22.6 C 12.9 km/h
435 01-08-2019 12:10:00 22.6 C 10.65 g/m*3 22.6 C 9.7 km/h
436 01-08-2019 12:15:00 22.6 C 10.65 g/m*3 22.6 C 9.7 km/h
437 01-08-2019 12:20:00 22.7 C 10.71 g/m*3 22.7 C 4.8 km/h
438 01-08-2019 12:25:00 22.8 C 10.57 g/m*3 22.8 C 12.9 km/h
439 01-08-2019 12:30:00 22.7 C 10.71 g/m*3 22.7 C 6.4 km/h
440 01-08-2019 12:35:00 22.4 C 10.53 g/m*3 22.4 C 11.3 km/h
441 01-08-2019 12:40:00 22.2 C 10.6 g/m*3 22.2 C 11.3 km/h
442 01-08-2019 12:45:00 22.1 C 10.74 g/m*3 22.1 C 8.1 km/h
443 01-08-2019 12:50:00 22.1 C 10.74 g/m*3 22.1 C 8.1 km/h
444 01-08-2019 12:55:00 22.2 C 10.6 g/m*3 22.2 C 4.8 km/h
445 01-08-2019 13:00:00 22.3 C 10.86 g/m*3 22.3 C 4.8 km/h
446 01-08-2019 13:05:00 22.6 C 11.05 g/m*3 22.6 C 6.4 km/h
447 01-08-2019 13:10:00 22.8 C 10.77 g/m*3 22.8 C 6.4 km/h
448 01-08-2019 13:15:00 23.1 C 10.75 g/m*3 23.1 C 9.7 km/h
449 01-08-2019 13:20:00 23.1 C 10.75 g/m*3 23.1 C 4.8 km/h
450 01-08-2019 13:25:00 23.1 C 10.75 g/m*3 23.1 C 4.8 km/h
Sensor: Nr:Datum:Temp:Abs-Feuchte:Windchill:Wind:
Aussen-T/F 451 01-08-2019 13:30:00 23.2 C 11.23 g/m*3 23.2 C 4.8 km/h
452 01-08-2019 13:35:00 23.2 C 11.23 g/m*3 23.2 C 9.7 km/h
453 01-08-2019 13:40:00 23.3 C 11.29 g/m*3 23.3 C 8.1 km/h
454 01-08-2019 13:45:00 23.6 C 11.27 g/m*3 23.6 C 4.8 km/h
455 01-08-2019 13:50:00 23.8 C 10.97 g/m*3 23.8 C 4.8 km/h
456 01-08-2019 13:55:00 23.9 C 11.03 g/m*3 23.9 C 8.1 km/h
457 01-08-2019 14:00:00 23.9 C 10.82 g/m*3 23.9 C 8.1 km/h
458 01-08-2019 14:05:00 24.1 C 10.94 g/m*3 24.1 C 12.9 km/h
459 01-08-2019 14:10:00 24.1 C 10.72 g/m*3 24.1 C 8.1 km/h
460 01-08-2019 14:15:00 24.1 C 10.72 g/m*3 24.1 C 3.2 km/h
461 01-08-2019 14:20:00 24.1 C 11.16 g/m*3 24.1 C 4.8 km/h
462 01-08-2019 14:25:00 24.2 C 10.78 g/m*3 24.2 C 11.3 km/h
463 01-08-2019 14:30:00 24.2 C 10.78 g/m*3 24.2 C 8.1 km/h
464 01-08-2019 14:35:00 24.2 C 10.78 g/m*3 24.2 C 8.1 km/h
465 01-08-2019 14:40:00 24.2 C 11 g/m*3 24.2 C 12.9 km/h
466 01-08-2019 14:45:00 24.2 C 10.78 g/m*3 24.2 C 9.7 km/h
467 01-08-2019 14:50:00 24.2 C 10.78 g/m*3 24.2 C 4.8 km/h
468 01-08-2019 14:55:00 24.3 C 10.84 g/m*3 24.3 C 11.3 km/h
469 01-08-2019 15:00:00 24.4 C 11.13 g/m*3 24.4 C 9.7 km/h
470 01-08-2019 15:05:00 24.5 C 10.74 g/m*3 24.5 C 4.8 km/h
471 01-08-2019 15:10:00 24.6 C 11.03 g/m*3 24.6 C 11.3 km/h
472 01-08-2019 15:15:00 24.7 C 10.86 g/m*3 24.7 C 8.1 km/h
473 01-08-2019 15:20:00 24.8 C 10.93 g/m*3 24.8 C 6.4 km/h
474 01-08-2019 15:25:00 24.8 C 11.15 g/m*3 24.8 C 8.1 km/h
475 01-08-2019 15:30:00 24.7 C 10.86 g/m*3 24.7 C 11.3 km/h
Sensor: Nr:Datum:Temp:Abs-Feuchte:Windchill:Wind:
Aussen-T/F 476 01-08-2019 15:35:00 24.7 C 11.09 g/m*3 24.7 C 6.4 km/h
477 01-08-2019 15:40:00 24.6 C 11.03 g/m*3 24.6 C 11.3 km/h
478 01-08-2019 15:45:00 24.5 C 10.97 g/m*3 24.5 C 6.4 km/h
479 01-08-2019 15:50:00 24.3 C 11.06 g/m*3 24.3 C 11.3 km/h
480 01-08-2019 15:55:00 24.3 C 11.06 g/m*3 24.3 C 6.4 km/h
481 01-08-2019 16:00:00 24.2 C 11.22 g/m*3 24.2 C 6.4 km/h
482 01-08-2019 16:05:00 24.2 C 11.22 g/m*3 24.2 C 6.4 km/h
483 01-08-2019 16:10:00 24.2 C 11.22 g/m*3 24.2 C 6.4 km/h
484 01-08-2019 16:15:00 24.2 C 11.22 g/m*3 24.2 C 9.7 km/h
485 01-08-2019 16:20:00 24.2 C 11.22 g/m*3 24.2 C 11.3 km/h
486 01-08-2019 16:25:00 24.2 C 11.22 g/m*3 24.2 C 6.4 km/h
487 01-08-2019 16:30:00 24.3 C 11.29 g/m*3 24.3 C 4.8 km/h
488 01-08-2019 16:35:00 24.4 C 11.35 g/m*3 24.4 C 4.8 km/h
489 01-08-2019 16:40:00 24.6 C 11.03 g/m*3 24.6 C 9.7 km/h
490 01-08-2019 16:45:00 24.7 C 10.86 g/m*3 24.7 C 6.4 km/h
491 01-08-2019 16:50:00 24.8 C 10.93 g/m*3 24.8 C 8.1 km/h
492 01-08-2019 16:55:00 24.8 C 10.7 g/m*3 24.8 C 8.1 km/h
493 01-08-2019 17:00:00 24.8 C 10.7 g/m*3 24.8 C 6.4 km/h
494 01-08-2019 17:05:00 25 C 11.05 g/m*3 25 C 6.4 km/h
495 01-08-2019 17:10:00 25 C 11.05 g/m*3 25 C 6.4 km/h
496 01-08-2019 17:15:00 24.8 C 10.7 g/m*3 24.8 C 8.1 km/h
497 01-08-2019 17:20:00 24.8 C 10.93 g/m*3 24.8 C 4.8 km/h
498 01-08-2019 17:25:00 24.8 C 11.15 g/m*3 24.8 C 6.4 km/h
499 01-08-2019 17:30:00 24.7 C 11.09 g/m*3 24.7 C 6.4 km/h
500 01-08-2019 17:35:00 25 C 11.28 g/m*3 25 C 6.4 km/h
Sensor: Nr:Datum:Temp:Abs-Feuchte:Windchill:Wind:
Aussen-T/F 501 01-08-2019 17:40:00 25.4 C 11.06 g/m*3 25.4 C 6.4 km/h
502 01-08-2019 17:45:00 25.5 C 11.13 g/m*3 25.5 C 6.4 km/h
503 01-08-2019 17:50:00 25.7 C 11.25 g/m*3 25.7 C 3.2 km/h
504 01-08-2019 17:55:00 26.1 C 11.26 g/m*3 26.1 C 8.1 km/h
505 01-08-2019 18:00:00 26.6 C 11.58 g/m*3 26.6 C 6.4 km/h
506 01-08-2019 18:05:00 26.9 C 11.26 g/m*3 26.9 C 9.7 km/h
507 01-08-2019 18:10:00 26.7 C 11.14 g/m*3 26.7 C 4.8 km/h
508 01-08-2019 18:15:00 26.4 C 11.45 g/m*3 26.4 C 8.1 km/h
509 01-08-2019 18:20:00 26.2 C 11.08 g/m*3 26.2 C 8.1 km/h
510 01-08-2019 18:25:00 25.8 C 10.83 g/m*3 25.8 C 8.1 km/h
511 01-08-2019 18:30:00 25.7 C 11.01 g/m*3 25.7 C 9.7 km/h
512 01-08-2019 18:35:00 25.6 C 10.95 g/m*3 25.6 C 6.4 km/h
513 01-08-2019 18:40:00 26.1 C 11.26 g/m*3 26.1 C 8.1 km/h
514 01-08-2019 18:45:00 26.6 C 11.08 g/m*3 26.6 C 4.8 km/h
515 01-08-2019 18:50:00 26.8 C 10.94 g/m*3 26.8 C 8.1 km/h
516 01-08-2019 18:55:00 26.8 C 10.69 g/m*3 26.8 C 8.1 km/h
517 01-08-2019 19:00:00 26.8 C 10.94 g/m*3 26.8 C 6.4 km/h
518 01-08-2019 19:05:00 26.8 C 10.94 g/m*3 26.8 C 8.1 km/h
519 01-08-2019 19:10:00 26.8 C 11.2 g/m*3 26.8 C 6.4 km/h
520 01-08-2019 19:15:00 26.7 C 11.14 g/m*3 26.7 C 8.1 km/h
521 01-08-2019 19:20:00 26.6 C 11.33 g/m*3 26.6 C 6.4 km/h
522 01-08-2019 19:25:00 26.4 C 11.2 g/m*3 26.4 C 6.4 km/h
523 01-08-2019 19:30:00 26.3 C 11.14 g/m*3 26.3 C 6.4 km/h
524 01-08-2019 19:35:00 26.1 C 11.26 g/m*3 26.1 C 8.1 km/h
525 01-08-2019 19:40:00 25.9 C 11.14 g/m*3 25.9 C 4.8 km/h
Sensor: Nr:Datum:Temp:Abs-Feuchte:Windchill:Wind:
Aussen-T/F 526 01-08-2019 19:45:00 25.7 C 11.25 g/m*3 25.7 C 4.8 km/h
527 01-08-2019 19:50:00 25.6 C 11.19 g/m*3 25.6 C 3.2 km/h
528 01-08-2019 19:55:00 25.5 C 11.13 g/m*3 25.5 C 3.2 km/h
529 01-08-2019 20:00:00 25.4 C 11.3 g/m*3 25.4 C 4.8 km/h
530 01-08-2019 20:05:00 25.2 C 11.87 g/m*3 25.2 C 4.8 km/h
531 01-08-2019 20:10:00 24.9 C 11.9 g/m*3 24.9 C 4.8 km/h
532 01-08-2019 20:15:00 24.6 C 11.7 g/m*3 24.6 C 4.8 km/h
533 01-08-2019 20:20:00 24.4 C 11.79 g/m*3 24.4 C 4.8 km/h
534 01-08-2019 20:25:00 24.2 C 11.88 g/m*3 24.2 C 3.2 km/h
535 01-08-2019 20:30:00 24 C 11.53 g/m*3 24 C 3.2 km/h
536 01-08-2019 20:35:00 23.9 C 11.9 g/m*3 23.9 C 0 km/h
537 01-08-2019 20:40:00 23.7 C 11.98 g/m*3 23.7 C 0 km/h
538 01-08-2019 20:45:00 23.4 C 11.99 g/m*3 23.4 C 0 km/h
539 01-08-2019 20:50:00 23 C 11.72 g/m*3 23 C 0 km/h
540 01-08-2019 20:55:00 22.6 C 11.65 g/m*3 22.6 C 0 km/h
541 01-08-2019 21:00:00 22.3 C 11.65 g/m*3 22.3 C 0 km/h
542 01-08-2019 21:05:00 22.1 C 11.71 g/m*3 22.1 C 0 km/h
543 01-08-2019 21:10:00 21.8 C 11.51 g/m*3 21.8 C 0 km/h
544 01-08-2019 21:15:00 21.6 C 11.57 g/m*3 21.6 C 0 km/h
545 01-08-2019 21:20:00 21.3 C 11.56 g/m*3 21.3 C 0 km/h
546 01-08-2019 21:25:00 21.1 C 11.42 g/m*3 21.1 C 0 km/h
547 01-08-2019 21:30:00 20.9 C 11.47 g/m*3 20.9 C 0 km/h
548 01-08-2019 21:35:00 20.8 C 11.59 g/m*3 20.8 C 0 km/h
549 01-08-2019 21:40:00 20.7 C 11.52 g/m*3 20.7 C 0 km/h
550 01-08-2019 21:45:00 20.5 C 11.57 g/m*3 20.5 C 0 km/h
Sensor: Nr:Datum:Temp:Abs-Feuchte:Windchill:Wind:
Aussen-T/F 551 01-08-2019 21:50:00 20.4 C 11.68 g/m*3 20.4 C 0 km/h
552 01-08-2019 21:55:00 20.3 C 11.61 g/m*3 20.3 C 0 km/h
553 01-08-2019 22:00:00 20.3 C 11.61 g/m*3 20.3 C 0 km/h
554 01-08-2019 22:05:00 20.2 C 11.71 g/m*3 20.2 C 0 km/h
555 01-08-2019 22:10:00 20.1 C 11.65 g/m*3 20.1 C 0 km/h
556 01-08-2019 22:15:00 19.9 C 11.51 g/m*3 19.9 C 0 km/h
557 01-08-2019 22:20:00 19.8 C 11.61 g/m*3 19.8 C 0 km/h
558 01-08-2019 22:25:00 19.7 C 11.55 g/m*3 19.7 C 0 km/h
559 01-08-2019 22:30:00 19.6 C 11.31 g/m*3 19.6 C 0 km/h
560 01-08-2019 22:35:00 19.6 C 11.48 g/m*3 19.6 C 0 km/h
561 01-08-2019 22:40:00 19.5 C 11.41 g/m*3 19.5 C 0 km/h
562 01-08-2019 22:45:00 19.5 C 11.41 g/m*3 19.5 C 0 km/h
563 01-08-2019 22:50:00 19.5 C 11.58 g/m*3 19.5 C 0 km/h
564 01-08-2019 22:55:00 19.5 C 11.58 g/m*3 19.5 C 0 km/h
565 01-08-2019 23:00:00 19.5 C 11.41 g/m*3 19.5 C 0 km/h
566 01-08-2019 23:05:00 19.4 C 11.35 g/m*3 19.4 C 0 km/h
567 01-08-2019 23:10:00 19.4 C 11.35 g/m*3 19.4 C 0 km/h
568 01-08-2019 23:15:00 19.3 C 11.28 g/m*3 19.3 C 0 km/h
569 01-08-2019 23:20:00 19.3 C 11.44 g/m*3 19.3 C 0 km/h
570 01-08-2019 23:25:00 19.2 C 11.54 g/m*3 19.2 C 0 km/h
571 01-08-2019 23:30:00 19.2 C 11.54 g/m*3 19.2 C 0 km/h
572 01-08-2019 23:35:00 19.2 C 11.54 g/m*3 19.2 C 0 km/h
573 01-08-2019 23:40:00 19.1 C 11.64 g/m*3 19.1 C 0 km/h
574 01-08-2019 23:45:00 19.1 C 11.64 g/m*3 19.1 C 0 km/h
575 01-08-2019 23:50:00 19.1 C 11.64 g/m*3 19.1 C 0 km/h
Sensor: Nr:Datum:Temp:Abs-Feuchte:Windchill:Wind:
Aussen-T/F 576 01-08-2019 23:55:00 19.1 C 11.64 g/m*3 19.1 C 0 km/h
577 02-08-2019 00:00:00 19.1 C 11.8 g/m*3 19.1 C 0 km/h
578 02-08-2019 00:05:00 19.1 C 11.8 g/m*3 19.1 C 0 km/h
579 02-08-2019 00:10:00 19 C 11.73 g/m*3 19 C 0 km/h
580 02-08-2019 00:15:00 18.9 C 11.66 g/m*3 18.9 C 0 km/h
581 02-08-2019 00:20:00 18.9 C 11.83 g/m*3 18.9 C 0 km/h
582 02-08-2019 00:25:00 18.8 C 11.76 g/m*3 18.8 C 0 km/h
583 02-08-2019 00:30:00 18.8 C 11.76 g/m*3 18.8 C 0 km/h
584 02-08-2019 00:35:00 18.7 C 11.85 g/m*3 18.7 C 0 km/h
585 02-08-2019 00:40:00 18.7 C 11.85 g/m*3 18.7 C 0 km/h
586 02-08-2019 00:45:00 18.6 C 11.78 g/m*3 18.6 C 0 km/h
587 02-08-2019 00:50:00 18.6 C 11.94 g/m*3 18.6 C 0 km/h
588 02-08-2019 00:55:00 18.6 C 11.94 g/m*3 18.6 C 0 km/h
589 02-08-2019 01:00:00 18.5 C 11.87 g/m*3 18.5 C 0 km/h
590 02-08-2019 01:05:00 18.5 C 11.87 g/m*3 18.5 C 0 km/h
591 02-08-2019 01:10:00 18.5 C 11.87 g/m*3 18.5 C 0 km/h
592 02-08-2019 01:15:00 18.4 C 11.8 g/m*3 18.4 C 0 km/h
593 02-08-2019 01:20:00 18.4 C 11.8 g/m*3 18.4 C 0 km/h
594 02-08-2019 01:25:00 18.4 C 11.95 g/m*3 18.4 C 0 km/h
595 02-08-2019 01:30:00 18.3 C 11.88 g/m*3 18.3 C 0 km/h
596 02-08-2019 01:35:00 18.3 C 11.73 g/m*3 18.3 C 0 km/h
597 02-08-2019 01:40:00 18.3 C 12.04 g/m*3 18.3 C 0 km/h
598 02-08-2019 01:45:00 18.2 C 11.97 g/m*3 18.2 C 0 km/h
599 02-08-2019 01:50:00 18.2 C 11.81 g/m*3 18.2 C 0 km/h
600 02-08-2019 01:55:00 18.1 C 11.74 g/m*3 18.1 C 0 km/h
Sensor: Nr:Datum:Temp:Abs-Feuchte:Windchill:Wind:
Aussen-T/F 601 02-08-2019 02:00:00 18.1 C 11.74 g/m*3 18.1 C 0 km/h
602 02-08-2019 02:05:00 18.1 C 11.74 g/m*3 18.1 C 0 km/h
603 02-08-2019 02:10:00 18 C 11.83 g/m*3 18 C 0 km/h
604 02-08-2019 02:15:00 18 C 11.67 g/m*3 18 C 0 km/h
605 02-08-2019 02:20:00 17.9 C 11.76 g/m*3 17.9 C 0 km/h
606 02-08-2019 02:25:00 17.9 C 11.76 g/m*3 17.9 C 0 km/h
607 02-08-2019 02:30:00 17.9 C 11.76 g/m*3 17.9 C 0 km/h
608 02-08-2019 02:35:00 17.8 C 11.69 g/m*3 17.8 C 0 km/h
609 02-08-2019 02:40:00 17.8 C 11.69 g/m*3 17.8 C 0 km/h
610 02-08-2019 02:45:00 17.7 C 11.62 g/m*3 17.7 C 0 km/h
611 02-08-2019 02:50:00 17.6 C 11.55 g/m*3 17.6 C 0 km/h
612 02-08-2019 02:55:00 17.6 C 11.7 g/m*3 17.6 C 0 km/h
613 02-08-2019 03:00:00 17.4 C 11.56 g/m*3 17.4 C 0 km/h
614 02-08-2019 03:05:00 17.3 C 11.49 g/m*3 17.3 C 0 km/h
615 02-08-2019 03:10:00 17.2 C 11.57 g/m*3 17.2 C 0 km/h
616 02-08-2019 03:15:00 17.1 C 11.5 g/m*3 17.1 C 0 km/h
617 02-08-2019 03:20:00 17.1 C 11.65 g/m*3 17.1 C 0 km/h
618 02-08-2019 03:25:00 16.9 C 11.51 g/m*3 16.9 C 0 km/h
619 02-08-2019 03:30:00 16.8 C 11.44 g/m*3 16.8 C 0 km/h
620 02-08-2019 03:35:00 16.8 C 11.44 g/m*3 16.8 C 0 km/h
621 02-08-2019 03:40:00 16.7 C 11.37 g/m*3 16.7 C 0 km/h
622 02-08-2019 03:45:00 16.7 C 11.37 g/m*3 16.7 C 0 km/h
623 02-08-2019 03:50:00 16.7 C 11.51 g/m*3 16.7 C 0 km/h
624 02-08-2019 03:55:00 16.6 C 11.44 g/m*3 16.6 C 0 km/h
625 02-08-2019 04:00:00 16.6 C 11.44 g/m*3 16.6 C 0 km/h
Sensor: Nr:Datum:Temp:Abs-Feuchte:Windchill:Wind:
Aussen-T/F 626 02-08-2019 04:05:00 16.5 C 11.51 g/m*3 16.5 C 0 km/h
627 02-08-2019 04:10:00 16.4 C 11.45 g/m*3 16.4 C 0 km/h
628 02-08-2019 04:15:00 16.4 C 11.45 g/m*3 16.4 C 0 km/h
629 02-08-2019 04:20:00 16.3 C 11.38 g/m*3 16.3 C 0 km/h
630 02-08-2019 04:25:00 16.3 C 11.38 g/m*3 16.3 C 0 km/h
631 02-08-2019 04:30:00 16.3 C 11.52 g/m*3 16.3 C 0 km/h
632 02-08-2019 04:35:00 16.2 C 11.45 g/m*3 16.2 C 0 km/h
633 02-08-2019 04:40:00 16.2 C 11.58 g/m*3 16.2 C 0 km/h
634 02-08-2019 04:45:00 16.2 C 11.45 g/m*3 16.2 C 0 km/h
635 02-08-2019 04:50:00 16.2 C 11.45 g/m*3 16.2 C 0 km/h
636 02-08-2019 04:55:00 16.2 C 11.45 g/m*3 16.2 C 0 km/h
637 02-08-2019 05:00:00 16.2 C 11.58 g/m*3 16.2 C 0 km/h
638 02-08-2019 05:05:00 16.2 C 11.45 g/m*3 16.2 C 0 km/h
639 02-08-2019 05:10:00 16.2 C 11.45 g/m*3 16.2 C 0 km/h
640 02-08-2019 05:15:00 16.2 C 11.45 g/m*3 16.2 C 0 km/h
641 02-08-2019 05:20:00 16.2 C 11.45 g/m*3 16.2 C 0 km/h
642 02-08-2019 05:25:00 16.2 C 11.58 g/m*3 16.2 C 0 km/h
643 02-08-2019 05:30:00 16.2 C 11.58 g/m*3 16.2 C 0 km/h
644 02-08-2019 05:35:00 16.2 C 11.58 g/m*3 16.2 C 0 km/h
645 02-08-2019 05:40:00 16.2 C 11.58 g/m*3 16.2 C 0 km/h
646 02-08-2019 05:45:00 16.2 C 11.58 g/m*3 16.2 C 0 km/h
647 02-08-2019 05:50:00 16.2 C 11.58 g/m*3 16.2 C 0 km/h
648 02-08-2019 05:55:00 16.2 C 11.58 g/m*3 16.2 C 0 km/h
649 02-08-2019 06:00:00 16.2 C 11.72 g/m*3 16.2 C 0 km/h
650 02-08-2019 06:05:00 16.2 C 11.72 g/m*3 16.2 C 0 km/h
Sensor: Nr:Datum:Temp:Abs-Feuchte:Windchill:Wind:
Aussen-T/F 651 02-08-2019 06:10:00 16.2 C 11.72 g/m*3 16.2 C 0 km/h
652 02-08-2019 06:15:00 16.2 C 11.72 g/m*3 16.2 C 0 km/h
653 02-08-2019 06:20:00 16.2 C 11.72 g/m*3 16.2 C 0 km/h
654 02-08-2019 06:25:00 16.2 C 11.72 g/m*3 16.2 C 0 km/h
655 02-08-2019 06:30:00 16.2 C 11.72 g/m*3 16.2 C 0 km/h
656 02-08-2019 06:35:00 16.3 C 11.79 g/m*3 16.3 C 0 km/h
657 02-08-2019 06:40:00 16.3 C 11.79 g/m*3 16.3 C 0 km/h
658 02-08-2019 06:45:00 16.3 C 11.79 g/m*3 16.3 C 0 km/h
659 02-08-2019 06:50:00 16.3 C 11.79 g/m*3 16.3 C 0 km/h
660 02-08-2019 06:55:00 16.4 C 11.86 g/m*3 16.4 C 0 km/h
661 02-08-2019 07:00:00 16.4 C 11.86 g/m*3 16.4 C 0 km/h
662 02-08-2019 07:05:00 16.5 C 11.94 g/m*3 16.5 C 0 km/h
663 02-08-2019 07:10:00 16.6 C 12.01 g/m*3 16.6 C 0 km/h
664 02-08-2019 07:15:00 16.7 C 12.08 g/m*3 16.7 C 0 km/h
665 02-08-2019 07:20:00 16.8 C 12.15 g/m*3 16.8 C 0 km/h
666 02-08-2019 07:25:00 16.9 C 12.23 g/m*3 16.9 C 0 km/h
667 02-08-2019 07:30:00 17 C 12.15 g/m*3 17 C 0 km/h
668 02-08-2019 07:35:00 17.1 C 12.23 g/m*3 17.1 C 0 km/h
669 02-08-2019 07:40:00 17.2 C 12.3 g/m*3 17.2 C 0 km/h
670 02-08-2019 07:45:00 17.2 C 12.3 g/m*3 17.2 C 0 km/h
671 02-08-2019 07:50:00 17.3 C 12.37 g/m*3 17.3 C 0 km/h
672 02-08-2019 07:55:00 17.4 C 12.45 g/m*3 17.4 C 0 km/h
673 02-08-2019 08:00:00 17.5 C 12.37 g/m*3 17.5 C 0 km/h
674 02-08-2019 08:05:00 17.6 C 12.45 g/m*3 17.6 C 0 km/h
675 02-08-2019 08:10:00 17.6 C 12.45 g/m*3 17.6 C 0 km/h
Sensor: Nr:Datum:Temp:Abs-Feuchte:Windchill:Wind:
Aussen-T/F 676 02-08-2019 08:15:00 17.7 C 12.52 g/m*3 17.7 C 0 km/h
677 02-08-2019 08:20:00 17.8 C 12.45 g/m*3 17.8 C 0 km/h
678 02-08-2019 08:25:00 17.9 C 12.67 g/m*3 17.9 C 0 km/h
679 02-08-2019 08:30:00 18 C 12.59 g/m*3 18 C 0 km/h
680 02-08-2019 08:35:00 18.1 C 12.67 g/m*3 18.1 C 0 km/h
681 02-08-2019 08:40:00 18.2 C 12.75 g/m*3 18.2 C 0 km/h
682 02-08-2019 08:45:00 18.2 C 12.75 g/m*3 18.2 C 0 km/h
683 02-08-2019 08:50:00 18.3 C 12.82 g/m*3 18.3 C 0 km/h
684 02-08-2019 08:55:00 18.3 C 12.66 g/m*3 18.3 C 0 km/h
685 02-08-2019 09:00:00 18.4 C 12.9 g/m*3 18.4 C 0 km/h
686 02-08-2019 09:05:00 18.6 C 12.89 g/m*3 18.6 C 0 km/h
687 02-08-2019 09:10:00 18.7 C 12.81 g/m*3 18.7 C 0 km/h
688 02-08-2019 09:15:00 18.8 C 12.72 g/m*3 18.8 C 0 km/h
689 02-08-2019 09:20:00 19 C 12.87 g/m*3 19 C 0 km/h
690 02-08-2019 09:25:00 19.2 C 12.86 g/m*3 19.2 C 0 km/h
691 02-08-2019 09:30:00 19.4 C 13.01 g/m*3 19.4 C 0 km/h
692 02-08-2019 09:35:00 19.7 C 13.08 g/m*3 19.7 C 0 km/h
693 02-08-2019 09:40:00 19.9 C 13.06 g/m*3 19.9 C 0 km/h
694 02-08-2019 09:45:00 20.1 C 13.21 g/m*3 20.1 C 0 km/h
695 02-08-2019 09:50:00 20.2 C 13.11 g/m*3 20.2 C 0 km/h
696 02-08-2019 09:55:00 20.2 C 12.94 g/m*3 20.2 C 0 km/h
697 02-08-2019 10:00:00 20.3 C 13.01 g/m*3 20.3 C 0 km/h
698 02-08-2019 10:05:00 20.3 C 13.01 g/m*3 20.3 C 0 km/h
699 02-08-2019 10:10:00 20.4 C 13.09 g/m*3 20.4 C 0 km/h
700 02-08-2019 10:15:00 20.5 C 13.17 g/m*3 20.5 C 0 km/h
Sensor: Nr:Datum:Temp:Abs-Feuchte:Windchill:Wind:
Aussen-T/F 701 02-08-2019 10:20:00 20.6 C 13.07 g/m*3 20.6 C 0 km/h
702 02-08-2019 10:25:00 20.7 C 13.14 g/m*3 20.7 C 0 km/h
703 02-08-2019 10:30:00 20.8 C 13.04 g/m*3 20.8 C 0 km/h
704 02-08-2019 10:35:00 20.8 C 12.86 g/m*3 20.8 C 0 km/h
705 02-08-2019 10:40:00 20.9 C 12.93 g/m*3 20.9 C 0 km/h
706 02-08-2019 10:45:00 21 C 12.82 g/m*3 21 C 0 km/h
707 02-08-2019 10:50:00 21.1 C 13.08 g/m*3 21.1 C 0 km/h
708 02-08-2019 10:55:00 21.2 C 12.79 g/m*3 21.2 C 0 km/h
709 02-08-2019 11:00:00 21.4 C 12.94 g/m*3 21.4 C 0 km/h
710 02-08-2019 11:05:00 21.7 C 12.78 g/m*3 21.7 C 4.8 km/h
711 02-08-2019 11:10:00 21.7 C 12.78 g/m*3 21.7 C 0 km/h
712 02-08-2019 11:15:00 21.8 C 12.66 g/m*3 21.8 C 0 km/h
713 02-08-2019 11:20:00 21.9 C 12.74 g/m*3 21.9 C 6.4 km/h
714 02-08-2019 11:25:00 22.1 C 12.69 g/m*3 22.1 C 4.8 km/h
715 02-08-2019 11:30:00 22.3 C 12.64 g/m*3 22.3 C 6.4 km/h
716 02-08-2019 11:35:00 22.5 C 12.58 g/m*3 22.5 C 8.1 km/h
717 02-08-2019 11:40:00 22.6 C 12.66 g/m*3 22.6 C 8.1 km/h
718 02-08-2019 11:45:00 22.6 C 12.66 g/m*3 22.6 C 8.1 km/h
719 02-08-2019 11:50:00 22.7 C 12.53 g/m*3 22.7 C 9.7 km/h
720 02-08-2019 11:55:00 22.7 C 12.73 g/m*3 22.7 C 3.2 km/h
721 02-08-2019 12:00:00 22.6 C 13.46 g/m*3 22.6 C 3.2 km/h
722 02-08-2019 12:05:00 22.5 C 14.58 g/m*3 22.5 C 0 km/h
723 02-08-2019 12:10:00 22.3 C 15.01 g/m*3 22.3 C 0 km/h
724 02-08-2019 12:15:00 21.9 C 14.47 g/m*3 21.9 C 8.1 km/h
725 02-08-2019 12:20:00 21.4 C 13.87 g/m*3 21.4 C 11.3 km/h
Sensor: Nr:Datum:Temp:Abs-Feuchte:Windchill:Wind:
Aussen-T/F 726 02-08-2019 12:25:00 21.2 C 14.08 g/m*3 21.2 C 12.9 km/h
727 02-08-2019 12:30:00 20.8 C 14.12 g/m*3 20.8 C 12.9 km/h
728 02-08-2019 12:35:00 20.7 C 14.22 g/m*3 20.7 C 0 km/h
729 02-08-2019 12:40:00 20.6 C 14.32 g/m*3 20.6 C 0 km/h
730 02-08-2019 12:45:00 20.5 C 13.88 g/m*3 20.5 C 0 km/h
731 02-08-2019 12:50:00 20.4 C 13.44 g/m*3 20.4 C 0 km/h
732 02-08-2019 12:55:00 20.4 C 13.09 g/m*3 20.4 C 0 km/h
733 02-08-2019 13:00:00 20.4 C 13.27 g/m*3 20.4 C 0 km/h
734 02-08-2019 13:05:00 20.5 C 12.63 g/m*3 20.5 C 4.8 km/h
735 02-08-2019 13:10:00 20.7 C 13.5 g/m*3 20.7 C 8.1 km/h
736 02-08-2019 13:15:00 20.7 C 12.96 g/m*3 20.7 C 6.4 km/h
737 02-08-2019 13:20:00 20.8 C 13.04 g/m*3 20.8 C 0 km/h
738 02-08-2019 13:25:00 20.9 C 12.93 g/m*3 20.9 C 0 km/h
739 02-08-2019 13:30:00 21.1 C 13.08 g/m*3 21.1 C 0 km/h
740 02-08-2019 13:35:00 21.4 C 12.94 g/m*3 21.4 C 4.8 km/h
741 02-08-2019 13:40:00 21.6 C 13.28 g/m*3 21.6 C 3.2 km/h
742 02-08-2019 13:45:00 21.7 C 13.35 g/m*3 21.7 C 0 km/h
743 02-08-2019 13:50:00 21.8 C 13.62 g/m*3 21.8 C 3.2 km/h
744 02-08-2019 13:55:00 21.9 C 13.12 g/m*3 21.9 C 4.8 km/h
745 02-08-2019 14:00:00 22 C 12.62 g/m*3 22 C 3.2 km/h
746 02-08-2019 14:05:00 22.1 C 12.49 g/m*3 22.1 C 3.2 km/h
747 02-08-2019 14:10:00 22.3 C 12.44 g/m*3 22.3 C 6.4 km/h
748 02-08-2019 14:15:00 22.5 C 12.38 g/m*3 22.5 C 0 km/h
749 02-08-2019 14:20:00 22.8 C 12.4 g/m*3 22.8 C 6.4 km/h
750 02-08-2019 14:25:00 23 C 12.74 g/m*3 23 C 6.4 km/h
Sensor: Nr:Datum:Temp:Abs-Feuchte:Windchill:Wind:
Aussen-T/F 751 02-08-2019 14:30:00 23.3 C 12.75 g/m*3 23.3 C 4.8 km/h
752 02-08-2019 14:35:00 23.5 C 13.11 g/m*3 23.5 C 6.4 km/h
753 02-08-2019 14:40:00 23.8 C 13.12 g/m*3 23.8 C 9.7 km/h
754 02-08-2019 14:45:00 24.1 C 12.91 g/m*3 24.1 C 8.1 km/h
755 02-08-2019 14:50:00 24.2 C 13.42 g/m*3 24.2 C 8.1 km/h
756 02-08-2019 14:55:00 24.4 C 13.35 g/m*3 24.4 C 4.8 km/h
757 02-08-2019 15:00:00 24.5 C 13.2 g/m*3 24.5 C 9.7 km/h
758 02-08-2019 15:05:00 24.5 C 13.2 g/m*3 24.5 C 6.4 km/h
759 02-08-2019 15:10:00 24.7 C 13.13 g/m*3 24.7 C 8.1 km/h
760 02-08-2019 15:15:00 24.8 C 12.97 g/m*3 24.8 C 6.4 km/h
761 02-08-2019 15:20:00 24.8 C 12.52 g/m*3 24.8 C 6.4 km/h
762 02-08-2019 15:25:00 24.7 C 12.45 g/m*3 24.7 C 8.1 km/h
763 02-08-2019 15:30:00 24.5 C 12.53 g/m*3 24.5 C 8.1 km/h
764 02-08-2019 15:35:00 24.4 C 12.69 g/m*3 24.4 C 6.4 km/h
765 02-08-2019 15:40:00 24.4 C 12.24 g/m*3 24.4 C 8.1 km/h
766 02-08-2019 15:45:00 24.4 C 12.46 g/m*3 24.4 C 8.1 km/h
767 02-08-2019 15:50:00 24.6 C 12.15 g/m*3 24.6 C 6.4 km/h
768 02-08-2019 15:55:00 24.7 C 12.45 g/m*3 24.7 C 6.4 km/h
769 02-08-2019 16:00:00 25.2 C 12.34 g/m*3 25.2 C 8.1 km/h
770 02-08-2019 16:05:00 25.5 C 12.31 g/m*3 25.5 C 9.7 km/h
771 02-08-2019 16:10:00 25.6 C 12.14 g/m*3 25.6 C 4.8 km/h
772 02-08-2019 16:15:00 25.6 C 12.38 g/m*3 25.6 C 8.1 km/h
773 02-08-2019 16:20:00 26.1 C 12.49 g/m*3 26.1 C 8.1 km/h
774 02-08-2019 16:25:00 26.2 C 12.31 g/m*3 26.2 C 8.1 km/h
775 02-08-2019 16:30:00 26.1 C 12 g/m*3 26.1 C 6.4 km/h
Sensor: Nr:Datum:Temp:Abs-Feuchte:Windchill:Wind:
Aussen-T/F 776 02-08-2019 16:35:00 25.7 C 11.97 g/m*3 25.7 C 6.4 km/h
777 02-08-2019 16:40:00 25.4 C 12.24 g/m*3 25.4 C 0 km/h
778 02-08-2019 16:45:00 25.3 C 12.17 g/m*3 25.3 C 0 km/h
779 02-08-2019 16:50:00 25.2 C 11.87 g/m*3 25.2 C 3.2 km/h
780 02-08-2019 16:55:00 25.2 C 11.64 g/m*3 25.2 C 0 km/h
781 02-08-2019 17:00:00 25.4 C 12.01 g/m*3 25.4 C 4.8 km/h
782 02-08-2019 17:05:00 26.1 C 11.75 g/m*3 26.1 C 8.1 km/h
783 02-08-2019 17:10:00 26.7 C 11.64 g/m*3 26.7 C 3.2 km/h
784 02-08-2019 17:15:00 27.1 C 11.9 g/m*3 27.1 C 6.4 km/h
785 02-08-2019 17:20:00 27.3 C 11.51 g/m*3 27.3 C 8.1 km/h
786 02-08-2019 17:25:00 27.3 C 11.51 g/m*3 27.3 C 6.4 km/h
787 02-08-2019 17:30:00 27.5 C 11.91 g/m*3 27.5 C 9.7 km/h
788 02-08-2019 17:35:00 27.4 C 11.31 g/m*3 27.4 C 12.9 km/h
789 02-08-2019 17:40:00 27 C 11.32 g/m*3 27 C 9.7 km/h
790 02-08-2019 17:45:00 26.6 C 11.58 g/m*3 26.6 C 11.3 km/h
791 02-08-2019 17:50:00 26.3 C 11.64 g/m*3 26.3 C 6.4 km/h
792 02-08-2019 17:55:00 26 C 11.69 g/m*3 26 C 8.1 km/h
793 02-08-2019 18:00:00 25.8 C 11.56 g/m*3 25.8 C 6.4 km/h
794 02-08-2019 18:05:00 26 C 11.69 g/m*3 26 C 8.1 km/h
795 02-08-2019 18:10:00 25.9 C 11.86 g/m*3 25.9 C 12.9 km/h
796 02-08-2019 18:15:00 25.6 C 11.9 g/m*3 25.6 C 11.3 km/h
797 02-08-2019 18:20:00 25.3 C 12.41 g/m*3 25.3 C 12.9 km/h
798 02-08-2019 18:25:00 24.9 C 12.59 g/m*3 24.9 C 19.3 km/h
799 02-08-2019 18:30:00 24.5 C 12.53 g/m*3 24.5 C 17.7 km/h
800 02-08-2019 18:35:00 24.3 C 12.61 g/m*3 24.3 C 9.7 km/h
Sensor: Nr:Datum:Temp:Abs-Feuchte:Windchill:Wind:
Aussen-T/F 801 02-08-2019 18:40:00 24.4 C 12.46 g/m*3 24.4 C 11.3 km/h
802 02-08-2019 18:45:00 24.4 C 12.69 g/m*3 24.4 C 12.9 km/h
803 02-08-2019 18:50:00 24.5 C 12.53 g/m*3 24.5 C 9.7 km/h
804 02-08-2019 18:55:00 24.5 C 12.53 g/m*3 24.5 C 11.3 km/h
805 02-08-2019 19:00:00 24.3 C 12.61 g/m*3 24.3 C 12.9 km/h
806 02-08-2019 19:05:00 24.2 C 12.76 g/m*3 24.2 C 12.9 km/h
807 02-08-2019 19:10:00 24 C 12.62 g/m*3 24 C 9.7 km/h
808 02-08-2019 19:15:00 23.9 C 11.47 g/m*3 23.9 C 11.3 km/h
809 02-08-2019 19:20:00 23.8 C 11.4 g/m*3 23.8 C 9.7 km/h
810 02-08-2019 19:25:00 23.7 C 11.55 g/m*3 23.7 C 6.4 km/h
811 02-08-2019 19:30:00 23.6 C 11.48 g/m*3 23.6 C 9.7 km/h
812 02-08-2019 19:35:00 23.6 C 11.27 g/m*3 23.6 C 9.7 km/h
813 02-08-2019 19:40:00 23.4 C 11.35 g/m*3 23.4 C 4.8 km/h
814 02-08-2019 19:45:00 23.4 C 11.57 g/m*3 23.4 C 6.4 km/h
815 02-08-2019 19:50:00 23.3 C 11.29 g/m*3 23.3 C 6.4 km/h
816 02-08-2019 19:55:00 23.2 C 11.43 g/m*3 23.2 C 1.6 km/h
817 02-08-2019 20:00:00 23.1 C 11.58 g/m*3 23.1 C 3.2 km/h
818 02-08-2019 20:05:00 22.9 C 12.26 g/m*3 22.9 C 3.2 km/h
819 02-08-2019 20:10:00 22.8 C 11.99 g/m*3 22.8 C 1.6 km/h
820 02-08-2019 20:15:00 22.7 C 12.32 g/m*3 22.7 C 0 km/h
821 02-08-2019 20:20:00 22.5 C 12.18 g/m*3 22.5 C 0 km/h
822 02-08-2019 20:25:00 22.4 C 11.92 g/m*3 22.4 C 3.2 km/h
823 02-08-2019 20:30:00 22.3 C 11.85 g/m*3 22.3 C 4.8 km/h
824 02-08-2019 20:35:00 22.3 C 11.85 g/m*3 22.3 C 1.6 km/h
825 02-08-2019 20:40:00 22.3 C 12.05 g/m*3 22.3 C 1.6 km/h
Sensor: Nr:Datum:Temp:Abs-Feuchte:Windchill:Wind:
Aussen-T/F 826 02-08-2019 20:45:00 22.2 C 12.17 g/m*3 22.2 C 0 km/h
827 02-08-2019 20:50:00 22.1 C 12.1 g/m*3 22.1 C 0 km/h
828 02-08-2019 20:55:00 21.9 C 12.16 g/m*3 21.9 C 0 km/h
829 02-08-2019 21:00:00 21.7 C 12.21 g/m*3 21.7 C 0 km/h
830 02-08-2019 21:05:00 21.5 C 12.26 g/m*3 21.5 C 0 km/h
831 02-08-2019 21:10:00 21.2 C 11.86 g/m*3 21.2 C 0 km/h
832 02-08-2019 21:15:00 21.1 C 11.98 g/m*3 21.1 C 0 km/h
833 02-08-2019 21:20:00 20.9 C 12.02 g/m*3 20.9 C 6.4 km/h
834 02-08-2019 21:25:00 20.9 C 11.66 g/m*3 20.9 C 9.7 km/h
835 02-08-2019 21:30:00 21.1 C 11.61 g/m*3 21.1 C 8.1 km/h
836 02-08-2019 21:35:00 21.3 C 11.74 g/m*3 21.3 C 6.4 km/h
837 02-08-2019 21:40:00 21.4 C 11.62 g/m*3 21.4 C 6.4 km/h
838 02-08-2019 21:45:00 21.4 C 11.62 g/m*3 21.4 C 8.1 km/h
839 02-08-2019 21:50:00 21.4 C 11.62 g/m*3 21.4 C 4.8 km/h
840 02-08-2019 21:55:00 21.4 C 11.81 g/m*3 21.4 C 3.2 km/h
841 02-08-2019 22:00:00 21.4 C 11.81 g/m*3 21.4 C 1.6 km/h
842 02-08-2019 22:05:00 21.3 C 11.74 g/m*3 21.3 C 6.4 km/h
843 02-08-2019 22:10:00 21.1 C 11.79 g/m*3 21.1 C 14.5 km/h
844 02-08-2019 22:15:00 21 C 11.91 g/m*3 21 C 6.4 km/h
845 02-08-2019 22:20:00 20.9 C 11.84 g/m*3 20.9 C 8.1 km/h
846 02-08-2019 22:25:00 20.9 C 12.02 g/m*3 20.9 C 8.1 km/h
847 02-08-2019 22:30:00 20.8 C 12.13 g/m*3 20.8 C 11.3 km/h
848 02-08-2019 22:35:00 20.8 C 11.95 g/m*3 20.8 C 9.7 km/h
849 02-08-2019 22:40:00 20.8 C 11.95 g/m*3 20.8 C 9.7 km/h
850 02-08-2019 22:45:00 20.8 C 11.95 g/m*3 20.8 C 11.3 km/h
Sensor: Nr:Datum:Temp:Abs-Feuchte:Windchill:Wind:
Aussen-T/F 851 02-08-2019 22:50:00 20.8 C 12.13 g/m*3 20.8 C 11.3 km/h
852 02-08-2019 22:55:00 20.8 C 11.95 g/m*3 20.8 C 19.3 km/h
853 02-08-2019 23:00:00 20.6 C 12.17 g/m*3 20.6 C 20.9 km/h
854 02-08-2019 23:05:00 20.3 C 12.66 g/m*3 20.3 C 14.5 km/h
855 02-08-2019 23:10:00 19.9 C 12.71 g/m*3 19.9 C 9.7 km/h
856 02-08-2019 23:15:00 19.6 C 13 g/m*3 19.6 C 1.6 km/h
857 02-08-2019 23:20:00 19.3 C 12.94 g/m*3 19.3 C 8.1 km/h
858 02-08-2019 23:25:00 18.9 C 12.96 g/m*3 18.9 C 3.2 km/h
859 02-08-2019 23:30:00 18.7 C 12.97 g/m*3 18.7 C 0 km/h
860 02-08-2019 23:35:00 18.4 C 12.74 g/m*3 18.4 C 0 km/h
861 02-08-2019 23:40:00 18.3 C 12.98 g/m*3 18.3 C 1.6 km/h
862 02-08-2019 23:45:00 18.1 C 12.82 g/m*3 18.1 C 0 km/h
863 02-08-2019 23:50:00 17.9 C 12.83 g/m*3 17.9 C 0 km/h
864 02-08-2019 23:55:00 17.7 C 12.82 g/m*3 17.7 C 0 km/h

Legende:
   Min
   Max


Maximal/Minimal-Werte vom 31.07.2019 - 02.08.2019

Sensor Min Max Avg
Temp
(Aussen-T/F)
12 °C
01-08-2019  06:35:00
27.5 °C
02-08-2019  17:30:00
20.35 °C
Abs-Feuchte
(Aussen-T/F)
9.18 g/m*3
31-07-2019  15:00:00
15.01 g/m*3
02-08-2019  12:10:00
11.27 g/m*3
Windchill
(Aussen-T/F)
12 C
01-08-2019  06:35:00
27.5 C
02-08-2019  17:30:00
20.33 C

Die Daten stammen von einer Davis Vantage Pro 2 Wetter-Station und werden unter Linux mit der Software wview2wettercgi und aufbereitet. Alle Angaben erfolgen ohne Gewähr für ihre Vollständigkeit oder Richtigkeit.
Kontakt: Rainer Krienke krienke@uni-koblenz.de . Meine Webseiten an der Uni Koblenz oder privat.
Version: $Revision: 0.78 $